»·PEaware :: N105HF KSNA-KSNA

N105HF :: KSNA-KSNA

FLIGHT INFORMATION

Flight Status: Arrived
Operator: Privately registered:
United States
More flights under this callsign
Pilot: Jerrivel R. (26020)
Aircraft: CESSNA 172 SKYHAWK
(C172)
More flights by this aircraft type
Origin: KSNA John Wayne-Orange Co
United States
Destination: KSNA John Wayne-Orange Co
United States
More flights between these airports :: More routes between these airports
Route: SLI
File this flight plan on PilotEdge
Remarks: I-1 RATING
Altitude:
(Current/Filed)
3,000ft
Speed:
(Current/Filed)
102kts
Departed: 06-Jan-21 07:02 PM
Arrived: 06-Jan-21 07:27 PM
Distance/Time
Traveled:
0nm/0:25
Distance/Time
To Go:
Arrived

Flight Plot

Page will automatically refresh every two minutes.


Map Options




Map Legend


Flown Route
Filed Route
Departure Airport
Arrival Airport
Navaid (VOR, NDB)
Fix

Horizontal Profiles

Position Reports

Time Latitude Longitude Heading Altitude Ground
Speed
06-Jan-21 18:31 33.672595 -117.866314 26 59ft 0kts
06-Jan-21 18:32 33.672598 -117.866312 26 59ft 0kts
06-Jan-21 18:33 33.672602 -117.866310 26 59ft 0kts
06-Jan-21 18:34 33.672605 -117.866308 26 59ft 0kts
06-Jan-21 18:35 33.672608 -117.866306 26 59ft 0kts
06-Jan-21 18:36 33.672612 -117.866304 26 59ft 0kts
06-Jan-21 18:37 33.672615 -117.866302 26 59ft 0kts
06-Jan-21 18:38 33.672618 -117.866300 26 59ft 0kts
06-Jan-21 18:39 33.672622 -117.866298 26 59ft 0kts
06-Jan-21 18:40 33.672625 -117.866296 26 59ft 0kts
06-Jan-21 18:41 33.672628 -117.866294 26 59ft 0kts
06-Jan-21 18:42 33.672632 -117.866292 26 59ft 0kts
06-Jan-21 18:43 33.672635 -117.866290 26 59ft 0kts
06-Jan-21 18:44 33.672639 -117.866288 26 59ft 0kts
06-Jan-21 18:45 33.672642 -117.866286 26 59ft 0kts
06-Jan-21 18:46 33.672645 -117.866285 26 59ft 0kts
06-Jan-21 18:47 33.672674 -117.866269 20 59ft 2kts
06-Jan-21 18:48 33.672234 -117.866656 284 59ft 4kts
06-Jan-21 18:49 33.673492 -117.866915 341 59ft 5kts
06-Jan-21 18:51 33.676459 -117.865608 26 59ft 13kts
06-Jan-21 18:52 33.678916 -117.864035 346 59ft 0kts
06-Jan-21 18:53 33.678919 -117.864036 346 59ft 0kts
06-Jan-21 18:54 33.678924 -117.864037 346 59ft 0kts
06-Jan-21 18:55 33.678928 -117.864038 346 59ft 0kts
06-Jan-21 18:56 33.678930 -117.864039 346 59ft 0kts
06-Jan-21 18:57 33.678933 -117.864040 346 59ft 0kts
06-Jan-21 18:58 33.678936 -117.864041 346 59ft 0kts
06-Jan-21 18:59 33.678940 -117.864042 346 59ft 0kts
06-Jan-21 19:00 33.679866 -117.863531 325 59ft 6kts
06-Jan-21 19:01 33.679939 -117.863621 327 59ft 2kts
06-Jan-21 19:02 33.669926 -117.871172 213 453ft 83kts
06-Jan-21 19:03 33.649281 -117.887023 208 1542ft 88kts
06-Jan-21 19:04 33.629657 -117.906845 230 2041ft 100kts
06-Jan-21 19:05 33.611668 -117.933435 232 2030ft 90kts
06-Jan-21 19:06 33.614040 -117.954234 0 2269ft 94kts
06-Jan-21 19:07 33.641326 -117.952853 1 2994ft 100kts
06-Jan-21 19:07 33.664735 -117.951164 2 3034ft 99kts
06-Jan-21 19:08 33.693116 -117.948509 1 2987ft 106kts
06-Jan-21 19:10 33.727150 -117.944922 31 2993ft 105kts
06-Jan-21 19:11 33.751052 -117.926142 29 3029ft 102kts
06-Jan-21 19:11 33.771057 -117.912146 28 3005ft 100kts
06-Jan-21 19:12 33.795467 -117.895209 27 3038ft 102kts
06-Jan-21 19:13 33.821446 -117.879514 31 3015ft 104kts
06-Jan-21 19:14 33.844739 -117.859852 31 3037ft 98kts
06-Jan-21 19:15 33.867855 -117.842578 28 3003ft 99kts
06-Jan-21 19:16 33.874160 -117.816648 113 2968ft 93kts
06-Jan-21 19:17 33.864007 -117.785423 110 3046ft 102kts
06-Jan-21 19:18 33.848981 -117.761046 202 2919ft 95kts
06-Jan-21 19:19 33.824595 -117.773698 207 3030ft 95kts
06-Jan-21 19:20 33.801894 -117.789014 206 2796ft 97kts
06-Jan-21 19:21 33.778387 -117.804057 204 2195ft 91kts
06-Jan-21 19:22 33.755343 -117.817936 208 1667ft 89kts
06-Jan-21 19:23 33.733051 -117.832724 205 1229ft 92kts
06-Jan-21 19:24 33.710891 -117.846254 207 750ft 85kts
06-Jan-21 19:25 33.690360 -117.859560 204 281ft 71kts
06-Jan-21 19:26 33.676284 -117.868458 209 59ft 23kts
06-Jan-21 19:27 33.674835 -117.868698 162 59ft 1kts
06-Jan-21 19:28 33.673928 -117.867674 116 59ft 8kts

Navigation Log

Ident Type
Flight plan parsing failed, navigation log unavailable